Time;durP1;ratioP1;P1;durP2;ratioP2;P2;SDS_P1;SDS_P2;PMS_P1;PMS_P2;Temp;Humidity;BMP_temperature;BMP_pressure;BME280_temperature;BME280_humidity;BME280_pressure;Samples;Min_cycle;Max_cycle;Signal;HPM_P1;HPM_P2
2023/05/28 00:00:15;;;;;;;3.53;2.03;;;;;;;;;;5045174;28;21411;-73
2023/05/28 00:02:41;;;;;;;2.92;1.90;;;;;;;;;;5046512;28;20021;-73
2023/05/28 00:05:07;;;;;;;3.50;2.20;;;;;;;;;;5045163;28;20052;-72
2023/05/28 00:07:33;;;;;;;6.90;2.88;;;;;;;;;;5038979;28;20183;-73
2023/05/28 00:09:59;;;;;;;4.00;2.42;;;;;;;;;;5032134;28;20056;-73
2023/05/28 00:12:26;;;;;;;3.25;2.30;;;;;;;;;;5036859;28;20032;-73
2023/05/28 00:14:52;;;;;;;6.53;2.40;;;;;;;;;;5034985;28;20026;-72
2023/05/28 00:17:18;;;;;;;4.18;1.95;;;;;;;;;;5047124;28;20036;-73
2023/05/28 00:19:44;;;;;;;4.80;2.53;;;;;;;;;;5038189;28;20039;-72
2023/05/28 00:22:10;;;;;;;3.72;2.10;;;;;;;;;;5039263;28;20025;-72
2023/05/28 00:24:36;;;;;;;3.88;2.33;;;;;;;;;;5037144;28;20029;-73
2023/05/28 00:27:08;;;;;;;5.75;2.53;;;;;;;;;;5051430;28;20024;-73
2023/05/28 00:29:34;;;;;;;3.05;2.35;;;;;;;;;;5046392;28;20021;-73
2023/05/28 00:32:00;;;;;;;4.72;2.50;;;;;;;;;;5044330;28;20021;-73
2023/05/28 00:34:26;;;;;;;5.25;3.03;;;;;;;;;;5049076;28;20037;-74
2023/05/28 00:36:53;;;;;;;6.13;2.80;;;;;;;;;;5040539;28;20033;-74
2023/05/28 00:39:19;;;;;;;4.35;2.30;;;;;;;;;;5042599;28;20025;-73
2023/05/28 00:41:45;;;;;;;4.55;2.40;;;;;;;;;;5044458;28;20032;-73
2023/05/28 00:44:12;;;;;;;4.63;2.70;;;;;;;;;;5040249;28;20037;-73
2023/05/28 00:46:40;;;;;;;4.55;2.38;;;;;;;;;;5037517;28;20057;-72
2023/05/28 00:49:06;;;;;;;3.90;2.20;;;;;;;;;;5037389;28;20057;-74
2023/05/28 00:51:33;;;;;;;4.75;2.63;;;;;;;;;;5046752;28;20415;-73
2023/05/28 00:53:59;;;;;;;3.50;2.00;;;;;;;;;;5044503;28;20047;-73
2023/05/28 00:56:26;;;;;;;4.00;2.25;;;;;;;;;;5041978;28;20037;-73
2023/05/28 00:58:53;;;;;;;5.07;2.63;;;;;;;;;;5045287;28;20025;-73
2023/05/28 01:01:19;;;;;;;6.05;2.50;;;;;;;;;;5038277;28;20032;-73
2023/05/28 01:03:45;;;;;;;4.75;2.50;;;;;;;;;;5038497;28;20045;-73
2023/05/28 01:06:12;;;;;;;5.38;2.75;;;;;;;;;;5038793;28;20064;-73
2023/05/28 01:08:39;;;;;;;6.82;2.88;;;;;;;;;;5033294;28;20029;-73
2023/05/28 01:11:06;;;;;;;5.00;2.65;;;;;;;;;;5044119;28;20029;-73
2023/05/28 01:13:33;;;;;;;5.78;2.50;;;;;;;;;;5044319;28;20029;-73
2023/05/28 01:15:59;;;;;;;3.53;2.08;;;;;;;;;;5042212;28;20053;-73
2023/05/28 01:18:25;;;;;;;3.67;2.35;;;;;;;;;;5029613;28;20428;-74
2023/05/28 01:20:51;;;;;;;3.38;2.03;;;;;;;;;;5040733;28;20036;-74
2023/05/28 01:23:22;;;;;;;3.55;2.10;;;;;;;;;;5043883;28;20411;-73
2023/05/28 01:25:52;;;;;;;4.70;2.40;;;;;;;;;;5041412;28;20035;-73
2023/05/28 01:28:18;;;;;;;4.15;2.30;;;;;;;;;;5039976;28;20568;-73
2023/05/28 01:30:44;;;;;;;4.15;2.70;;;;;;;;;;5039724;28;20068;-74
2023/05/28 01:33:11;;;;;;;5.22;2.42;;;;;;;;;;5038968;28;20025;-73
2023/05/28 01:35:37;;;;;;;3.67;2.30;;;;;;;;;;5043687;28;20029;-72
2023/05/28 01:38:04;;;;;;;3.40;2.25;;;;;;;;;;5047687;28;20053;-72
2023/05/28 01:40:30;;;;;;;3.22;2.28;;;;;;;;;;5027493;28;20025;-72
2023/05/28 01:42:56;;;;;;;4.00;2.40;;;;;;;;;;5039017;28;20082;-73
2023/05/28 01:45:23;;;;;;;4.28;2.45;;;;;;;;;;5035248;28;20434;-73
2023/05/28 01:47:49;;;;;;;3.95;2.50;;;;;;;;;;5042315;28;20040;-73
2023/05/28 01:50:15;;;;;;;4.20;2.17;;;;;;;;;;5033160;28;20124;-73
2023/05/28 01:52:41;;;;;;;4.95;2.60;;;;;;;;;;5038405;28;20423;-74
2023/05/28 01:55:11;;;;;;;3.15;2.10;;;;;;;;;;5044461;28;20036;-73
2023/05/28 01:57:37;;;;;;;3.53;2.40;;;;;;;;;;5046802;28;20032;-73
2023/05/28 02:00:04;;;;;;;6.15;2.90;;;;;;;;;;5043521;28;20399;-73
2023/05/28 02:02:30;;;;;;;4.35;2.80;;;;;;;;;;5034775;28;20546;-74
2023/05/28 02:04:56;;;;;;;3.35;2.45;;;;;;;;;;5045492;28;20037;-72
2023/05/28 02:07:22;;;;;;;3.45;2.13;;;;;;;;;;5037762;28;20060;-73
2023/05/28 02:09:48;;;;;;;5.20;2.40;;;;;;;;;;5035366;28;20025;-73
2023/05/28 02:12:15;;;;;;;3.30;2.00;;;;;;;;;;5039213;28;20079;-73
2023/05/28 02:14:41;;;;;;;4.25;2.17;;;;;;;;;;5045695;28;20029;-72
2023/05/28 02:17:09;;;;;;;3.28;2.22;;;;;;;;;;5028782;28;20510;-72
2023/05/28 02:19:35;;;;;;;5.03;2.55;;;;;;;;;;5036150;28;20017;-73
2023/05/28 02:22:01;;;;;;;5.28;2.50;;;;;;;;;;5044268;28;20391;-73
2023/05/28 02:24:27;;;;;;;3.33;2.30;;;;;;;;;;5037492;28;20064;-73
2023/05/28 02:26:53;;;;;;;3.47;2.30;;;;;;;;;;5043516;28;20480;-73
2023/05/28 02:29:19;;;;;;;3.33;2.10;;;;;;;;;;5039691;28;20021;-74
2023/05/28 02:31:45;;;;;;;5.10;2.38;;;;;;;;;;5043279;28;20032;-73
2023/05/28 02:34:11;;;;;;;5.22;2.28;;;;;;;;;;5039814;28;20991;-73
2023/05/28 02:36:37;;;;;;;4.82;2.30;;;;;;;;;;5049858;28;20021;-73
2023/05/28 02:39:03;;;;;;;5.15;2.53;;;;;;;;;;5045694;28;20036;-73
2023/05/28 02:41:30;;;;;;;2.78;2.10;;;;;;;;;;5048714;28;20021;-73
2023/05/28 02:43:55;;;;;;;4.25;2.22;;;;;;;;;;5040208;28;20072;-72
2023/05/28 02:46:21;;;;;;;3.85;2.08;;;;;;;;;;5034839;28;20037;-73
2023/05/28 02:48:47;;;;;;;4.88;2.60;;;;;;;;;;5034622;28;20043;-73
2023/05/28 02:51:13;;;;;;;3.33;1.95;;;;;;;;;;5043247;28;20022;-73
2023/05/28 02:53:39;;;;;;;4.38;2.38;;;;;;;;;;5044909;28;20731;-73
2023/05/28 02:56:05;;;;;;;3.85;2.28;;;;;;;;;;5034203;28;20059;-73
2023/05/28 02:58:32;;;;;;;2.92;2.25;;;;;;;;;;5043200;28;20132;-73
2023/05/28 03:00:57;;;;;;;2.75;2.20;;;;;;;;;;5043042;28;20021;-73
2023/05/28 03:03:23;;;;;;;3.28;2.08;;;;;;;;;;5048698;28;20021;-73
2023/05/28 03:05:50;;;;;;;4.47;2.15;;;;;;;;;;5034841;28;20420;-73
2023/05/28 03:08:16;;;;;;;3.55;2.30;;;;;;;;;;5040561;28;20116;-73
2023/05/28 03:10:42;;;;;;;5.95;2.42;;;;;;;;;;5039298;28;20132;-73
2023/05/28 03:13:08;;;;;;;3.50;2.55;;;;;;;;;;5041890;28;20037;-73
2023/05/28 03:15:35;;;;;;;3.75;2.10;;;;;;;;;;5036485;28;20041;-73
2023/05/28 03:18:01;;;;;;;3.90;2.45;;;;;;;;;;5041756;28;20025;-74
2023/05/28 03:20:28;;;;;;;2.53;1.92;;;;;;;;;;5031511;28;20112;-73
2023/05/28 03:22:57;;;;;;;3.88;2.03;;;;;;;;;;5037721;28;20134;-73
2023/05/28 03:25:25;;;;;;;4.07;2.50;;;;;;;;;;5037598;28;20112;-73
2023/05/28 03:27:51;;;;;;;3.20;1.75;;;;;;;;;;5041541;28;20039;-73
2023/05/28 03:30:17;;;;;;;3.63;2.20;;;;;;;;;;5041160;28;20025;-74
2023/05/28 03:32:43;;;;;;;3.55;2.30;;;;;;;;;;5045770;28;20040;-73
2023/05/28 03:35:09;;;;;;;4.63;2.10;;;;;;;;;;5047374;28;20029;-73
2023/05/28 03:37:35;;;;;;;4.05;2.10;;;;;;;;;;5039746;28;20037;-74
2023/05/28 03:40:04;;;;;;;3.83;2.28;;;;;;;;;;5043640;28;20159;-73
2023/05/28 03:42:30;;;;;;;4.50;1.77;;;;;;;;;;5042194;28;20386;-73
2023/05/28 03:44:56;;;;;;;2.70;1.60;;;;;;;;;;5044612;28;20349;-73
2023/05/28 03:47:24;;;;;;;2.85;1.90;;;;;;;;;;5038377;28;20036;-73
2023/05/28 03:49:50;;;;;;;5.00;1.92;;;;;;;;;;5046783;28;20048;-73
2023/05/28 03:52:16;;;;;;;3.60;2.45;;;;;;;;;;5036207;28;20033;-73
2023/05/28 03:54:42;;;;;;;4.28;2.17;;;;;;;;;;5032793;28;20033;-73
2023/05/28 03:57:08;;;;;;;3.13;1.88;;;;;;;;;;5036950;28;20033;-73
2023/05/28 03:59:34;;;;;;;3.85;2.25;;;;;;;;;;5032691;28;20036;-73
2023/05/28 04:02:00;;;;;;;3.30;2.00;;;;;;;;;;5039344;28;20025;-73
2023/05/28 04:04:26;;;;;;;4.10;2.28;;;;;;;;;;5040974;28;20721;-73
2023/05/28 04:06:51;;;;;;;1.95;1.60;;;;;;;;;;5032547;28;20021;-73
2023/05/28 04:09:17;;;;;;;3.17;2.15;;;;;;;;;;5043620;28;20033;-73
2023/05/28 04:11:43;;;;;;;2.55;1.85;;;;;;;;;;5047483;28;20090;-73
2023/05/28 04:14:09;;;;;;;3.33;1.85;;;;;;;;;;5044033;28;20479;-73
2023/05/28 04:16:35;;;;;;;2.58;1.90;;;;;;;;;;5037619;28;20033;-73
2023/05/28 04:19:01;;;;;;;3.10;1.95;;;;;;;;;;5040701;28;20036;-73
2023/05/28 04:21:30;;;;;;;5.97;1.90;;;;;;;;;;5032901;28;20030;-72
2023/05/28 04:23:56;;;;;;;5.05;1.70;;;;;;;;;;5035903;28;20056;-73
2023/05/28 04:26:22;;;;;;;3.65;2.25;;;;;;;;;;5040724;28;20457;-73
2023/05/28 04:28:48;;;;;;;3.13;1.83;;;;;;;;;;5039450;28;20041;-73
2023/05/28 04:31:14;;;;;;;2.00;1.55;;;;;;;;;;5042125;28;20055;-73
2023/05/28 04:33:40;;;;;;;3.90;2.03;;;;;;;;;;5032969;28;20383;-72
2023/05/28 04:36:13;;;;;;;4.13;1.70;;;;;;;;;;5044840;28;20033;-72
2023/05/28 04:38:39;;;;;;;3.47;1.90;;;;;;;;;;5036519;28;20025;-73
2023/05/28 04:41:05;;;;;;;2.42;1.73;;;;;;;;;;5035196;28;20021;-72
2023/05/28 04:43:32;;;;;;;3.95;2.20;;;;;;;;;;5036039;28;20174;-73
2023/05/28 04:45:58;;;;;;;1.90;1.63;;;;;;;;;;5032558;28;20072;-72
2023/05/28 04:48:25;;;;;;;2.63;1.65;;;;;;;;;;5044591;28;20504;-72
2023/05/28 04:50:51;;;;;;;2.20;1.75;;;;;;;;;;5033838;28;20134;-73
2023/05/28 04:53:17;;;;;;;3.22;1.73;;;;;;;;;;5045183;28;20033;-72
2023/05/28 04:55:44;;;;;;;4.15;1.60;;;;;;;;;;5038229;28;20033;-72
2023/05/28 04:58:10;;;;;;;3.60;2.05;;;;;;;;;;5035065;28;20113;-73
2023/05/28 05:00:36;;;;;;;3.83;1.65;;;;;;;;;;5038010;28;20113;-74
2023/05/28 05:03:02;;;;;;;2.47;1.83;;;;;;;;;;5040211;28;20115;-73
2023/05/28 05:05:28;;;;;;;2.83;1.80;;;;;;;;;;5043834;28;20167;-73
2023/05/28 05:07:54;;;;;;;2.60;1.67;;;;;;;;;;5039749;28;20033;-73
2023/05/28 05:10:20;;;;;;;3.22;1.80;;;;;;;;;;5043121;28;20028;-73
2023/05/28 05:12:46;;;;;;;3.53;1.65;;;;;;;;;;5047961;28;20039;-73
2023/05/28 05:15:12;;;;;;;2.20;1.75;;;;;;;;;;5035959;28;20037;-72
2023/05/28 05:17:38;;;;;;;1.92;1.58;;;;;;;;;;5040789;28;20025;-73
2023/05/28 05:20:04;;;;;;;1.98;1.50;;;;;;;;;;5046087;28;20582;-72
2023/05/28 05:22:31;;;;;;;3.20;1.67;;;;;;;;;;5045550;28;20475;-73
2023/05/28 05:24:57;;;;;;;3.22;1.92;;;;;;;;;;5044876;28;20428;-74
2023/05/28 05:27:23;;;;;;;2.90;1.95;;;;;;;;;;5035001;28;20040;-73
2023/05/28 05:29:49;;;;;;;3.08;1.60;;;;;;;;;;5043198;28;20029;-73
2023/05/28 05:32:15;;;;;;;2.45;1.70;;;;;;;;;;5034965;28;20025;-73
2023/05/28 05:34:41;;;;;;;3.95;1.63;;;;;;;;;;5030595;28;20393;-73
2023/05/28 05:37:07;;;;;;;2.70;1.60;;;;;;;;;;5045039;28;20047;-72
2023/05/28 05:39:33;;;;;;;2.10;1.65;;;;;;;;;;5036010;28;20029;-73
2023/05/28 05:41:59;;;;;;;1.55;1.40;;;;;;;;;;5034139;28;20036;-73
2023/05/28 05:44:25;;;;;;;2.25;1.60;;;;;;;;;;5044000;28;20025;-73
2023/05/28 05:46:51;;;;;;;2.42;1.55;;;;;;;;;;5031132;28;20028;-73
2023/05/28 05:49:17;;;;;;;2.05;1.60;;;;;;;;;;5030403;28;20041;-72
2023/05/28 05:51:43;;;;;;;2.80;1.40;;;;;;;;;;5035273;28;20037;-74
2023/05/28 05:54:09;;;;;;;2.38;1.55;;;;;;;;;;5040129;28;20036;-73
2023/05/28 05:56:35;;;;;;;1.67;1.40;;;;;;;;;;5039091;28;20460;-73
2023/05/28 05:59:01;;;;;;;3.58;1.73;;;;;;;;;;5042581;28;20021;-73
2023/05/28 06:01:29;;;;;;;2.75;1.50;;;;;;;;;;5037491;28;20036;-73
2023/05/28 06:03:56;;;;;;;1.70;1.40;;;;;;;;;;5030148;28;20033;-73
2023/05/28 06:06:21;;;;;;;3.05;1.67;;;;;;;;;;5047879;28;20052;-73
2023/05/28 06:08:47;;;;;;;3.00;1.70;;;;;;;;;;5047593;28;20395;-73
2023/05/28 06:11:14;;;;;;;2.60;1.70;;;;;;;;;;5047429;28;20052;-73
2023/05/28 06:13:41;;;;;;;2.38;1.60;;;;;;;;;;5041982;28;20025;-73
2023/05/28 06:16:07;;;;;;;2.67;1.33;;;;;;;;;;5038831;28;20056;-71
2023/05/28 06:18:33;;;;;;;2.15;1.67;;;;;;;;;;5045679;28;20053;-72
2023/05/28 06:20:59;;;;;;;2.78;1.75;;;;;;;;;;5046435;28;20052;-72
2023/05/28 06:23:25;;;;;;;2.45;1.30;;;;;;;;;;5042985;28;20052;-73
2023/05/28 06:25:51;;;;;;;3.47;1.40;;;;;;;;;;5035457;28;20064;-72
2023/05/28 06:28:18;;;;;;;2.28;1.70;;;;;;;;;;5039510;28;20204;-72
2023/05/28 06:30:44;;;;;;;2.28;1.95;;;;;;;;;;5043947;28;20032;-73
2023/05/28 06:33:10;;;;;;;2.90;2.03;;;;;;;;;;5044677;28;20112;-73
2023/05/28 06:35:36;;;;;;;2.97;1.27;;;;;;;;;;5038897;28;20029;-73
2023/05/28 06:38:03;;;;;;;4.38;1.95;;;;;;;;;;5042827;28;20094;-72
2023/05/28 06:40:29;;;;;;;2.25;1.50;;;;;;;;;;5048051;28;20537;-73
2023/05/28 06:42:55;;;;;;;3.25;1.50;;;;;;;;;;5036946;28;20025;-74
2023/05/28 06:45:20;;;;;;;2.33;1.45;;;;;;;;;;5046862;28;20028;-74
2023/05/28 06:47:47;;;;;;;2.25;1.55;;;;;;;;;;5047133;28;20500;-74
2023/05/28 06:50:13;;;;;;;3.10;1.52;;;;;;;;;;5045840;28;20036;-73
2023/05/28 06:52:39;;;;;;;3.50;1.77;;;;;;;;;;5052322;28;20045;-74
2023/05/28 06:55:05;;;;;;;1.85;1.40;;;;;;;;;;5039738;28;20720;-78
2023/05/28 06:57:33;;;;;;;1.50;1.15;;;;;;;;;;5044712;28;20027;-78
2023/05/28 06:59:58;;;;;;;2.22;1.48;;;;;;;;;;5035780;28;20083;-78
2023/05/28 07:02:25;;;;;;;2.03;1.30;;;;;;;;;;5048788;28;20075;-78
2023/05/28 07:04:51;;;;;;;1.88;1.38;;;;;;;;;;5047370;28;20120;-78
2023/05/28 07:07:17;;;;;;;2.00;1.20;;;;;;;;;;5043989;28;20029;-78
2023/05/28 07:09:46;;;;;;;1.17;1.02;;;;;;;;;;5063747;28;20506;-78
2023/05/28 07:12:12;;;;;;;2.28;1.25;;;;;;;;;;5048088;28;20037;-78
2023/05/28 07:14:38;;;;;;;1.33;1.10;;;;;;;;;;5051634;28;20563;-78
2023/05/28 07:17:04;;;;;;;2.15;1.13;;;;;;;;;;5046772;28;20028;-78
2023/05/28 07:19:31;;;;;;;2.40;1.33;;;;;;;;;;5043999;28;20427;-78
2023/05/28 07:21:56;;;;;;;2.58;1.40;;;;;;;;;;5040771;28;20030;-76
2023/05/28 07:24:22;;;;;;;2.00;1.30;;;;;;;;;;5044336;28;20048;-75
2023/05/28 07:26:48;;;;;;;1.75;1.10;;;;;;;;;;5040334;28;20039;-75
2023/05/28 07:29:18;;;;;;;1.58;1.05;;;;;;;;;;5042943;28;20031;-75
2023/05/28 07:31:44;;;;;;;2.20;1.27;;;;;;;;;;5043206;28;20436;-75
2023/05/28 07:34:10;;;;;;;3.90;1.27;;;;;;;;;;5043482;28;20029;-75
2023/05/28 07:36:37;;;;;;;1.77;1.20;;;;;;;;;;5046021;28;20025;-74
2023/05/28 07:39:03;;;;;;;2.28;1.23;;;;;;;;;;5045426;28;20025;-75
2023/05/28 07:41:35;;;;;;;1.77;1.50;;;;;;;;;;5042696;28;20041;-76
2023/05/28 07:44:02;;;;;;;1.23;1.08;;;;;;;;;;5043690;28;20047;-75
2023/05/28 07:46:28;;;;;;;1.88;1.20;;;;;;;;;;5043282;28;20391;-75
2023/05/28 07:48:53;;;;;;;1.45;1.10;;;;;;;;;;5045998;28;20028;-75
2023/05/28 07:51:20;;;;;;;3.03;1.63;;;;;;;;;;5045205;28;20098;-75
2023/05/28 07:53:46;;;;;;;2.13;1.25;;;;;;;;;;5041184;28;20039;-76
2023/05/28 07:56:12;;;;;;;2.08;1.10;;;;;;;;;;5043785;28;20075;-76
2023/05/28 07:58:38;;;;;;;1.35;1.25;;;;;;;;;;5039050;28;20078;-75
2023/05/28 08:01:09;;;;;;;1.80;1.20;;;;;;;;;;5044190;28;20033;-75
2023/05/28 08:03:35;;;;;;;1.70;1.35;;;;;;;;;;5043571;28;20711;-75
2023/05/28 08:06:01;;;;;;;2.17;1.58;;;;;;;;;;5044680;28;20033;-75
2023/05/28 08:08:28;;;;;;;1.67;0.90;;;;;;;;;;5043028;28;20032;-75
2023/05/28 08:10:54;;;;;;;1.50;0.90;;;;;;;;;;5045495;28;20060;-76
2023/05/28 08:13:20;;;;;;;1.67;1.10;;;;;;;;;;5041877;28;20025;-75
2023/05/28 08:15:46;;;;;;;1.10;0.90;;;;;;;;;;5043600;28;20044;-75
2023/05/28 08:18:12;;;;;;;1.40;1.23;;;;;;;;;;5043932;28;20056;-76
2023/05/28 08:20:38;;;;;;;2.25;1.10;;;;;;;;;;5043532;28;20037;-76
2023/05/28 08:23:04;;;;;;;2.35;1.10;;;;;;;;;;5045049;28;20021;-75
2023/05/28 08:25:30;;;;;;;2.75;1.40;;;;;;;;;;5042047;28;20484;-76
2023/05/28 08:27:56;;;;;;;2.58;1.20;;;;;;;;;;5040476;28;21882;-75
2023/05/28 08:30:22;;;;;;;1.23;1.00;;;;;;;;;;5044788;28;20033;-75
2023/05/28 08:32:48;;;;;;;1.40;1.15;;;;;;;;;;5042428;28;20048;-76
2023/05/28 08:35:14;;;;;;;1.70;1.30;;;;;;;;;;5038190;28;20037;-76
2023/05/28 08:37:40;;;;;;;2.20;1.25;;;;;;;;;;5042154;28;20025;-76
2023/05/28 08:40:08;;;;;;;1.92;0.93;;;;;;;;;;5043024;28;20032;-76
2023/05/28 08:42:34;;;;;;;2.13;1.25;;;;;;;;;;5044336;28;20029;-75
2023/05/28 08:45:00;;;;;;;2.90;1.25;;;;;;;;;;5044476;28;20017;-74
2023/05/28 08:47:28;;;;;;;3.05;1.05;;;;;;;;;;5040364;28;20373;-75
2023/05/28 08:49:54;;;;;;;1.40;1.00;;;;;;;;;;5034501;28;20025;-73
2023/05/28 08:52:31;;;;;;;2.38;1.17;;;;;;;;;;5037061;28;20037;-78
2023/05/28 08:54:58;;;;;;;2.50;1.27;;;;;;;;;;5031038;28;20526;-77
2023/05/28 08:57:25;;;;;;;1.20;0.90;;;;;;;;;;5029950;28;20041;-79
2023/05/28 08:59:51;;;;;;;2.58;1.20;;;;;;;;;;5028574;28;20049;-80
2023/05/28 09:02:17;;;;;;;2.20;1.40;;;;;;;;;;5041150;28;20021;-76
2023/05/28 09:04:46;;;;;;;1.00;0.90;;;;;;;;;;5042504;28;20032;-77
2023/05/28 09:07:13;;;;;;;1.30;1.00;;;;;;;;;;5037575;28;20123;-80
2023/05/28 09:09:40;;;;;;;1.80;1.15;;;;;;;;;;5035753;28;20106;-77
2023/05/28 09:12:10;;;;;;;1.88;0.98;;;;;;;;;;5039175;28;20384;-78
2023/05/28 09:14:39;;;;;;;0.93;0.90;;;;;;;;;;5032806;28;20033;-78
2023/05/28 09:17:05;;;;;;;1.55;0.82;;;;;;;;;;5031114;28;20037;-77
2023/05/28 09:19:40;;;;;;;1.90;1.13;;;;;;;;;;5039423;28;20040;-78
2023/05/28 09:22:05;;;;;;;4.20;1.20;;;;;;;;;;5038006;28;20017;-78
2023/05/28 09:24:32;;;;;;;1.08;0.90;;;;;;;;;;5035353;28;20540;-79
2023/05/28 09:26:58;;;;;;;1.23;0.90;;;;;;;;;;5034872;28;20044;-76
2023/05/28 09:29:25;;;;;;;2.05;1.08;;;;;;;;;;5037987;28;20480;-76
2023/05/28 09:31:57;;;;;;;1.00;0.77;;;;;;;;;;5041589;28;20162;-76
2023/05/28 09:34:31;;;;;;;1.27;0.93;;;;;;;;;;5043354;28;20037;-76
2023/05/28 09:39:47;;;;;;;0.82;0.70;;;;;;;;;;5030426;28;20048;-77
2023/05/28 09:42:13;;;;;;;1.35;0.70;;;;;;;;;;5052576;28;20387;-82
2023/05/28 09:44:40;;;;;;;2.65;0.93;;;;;;;;;;5036776;28;20048;-79
2023/05/28 09:47:21;;;;;;;0.98;0.70;;;;;;;;;;5049743;28;20427;-77
2023/05/28 09:49:49;;;;;;;2.50;0.98;;;;;;;;;;5048941;28;20028;-89
2023/05/28 09:52:19;;;;;;;1.35;0.82;;;;;;;;;;5045686;28;20112;-75
2023/05/28 09:54:50;;;;;;;0.90;0.73;;;;;;;;;;5040297;28;20031;-74
2023/05/28 09:57:18;;;;;;;1.90;1.23;;;;;;;;;;5039032;28;20021;-76
2023/05/28 09:59:45;;;;;;;1.52;0.90;;;;;;;;;;5043006;28;20025;-76
2023/05/28 10:08:14;;;;;;;0.80;0.80;;;;;;;;;;4982417;28;20118;-74
2023/05/28 10:10:53;;;;;;;1.33;1.00;;;;;;;;;;5039560;28;20052;-75
2023/05/28 10:13:28;;;;;;;1.30;0.95;;;;;;;;;;5038042;28;20533;-73
2023/05/28 10:15:55;;;;;;;1.50;1.00;;;;;;;;;;5042693;28;20066;-73
2023/05/28 10:18:23;;;;;;;2.20;1.02;;;;;;;;;;5042738;28;20037;-75
2023/05/28 10:20:49;;;;;;;1.08;0.80;;;;;;;;;;5037153;28;20040;-80
2023/05/28 10:23:20;;;;;;;1.42;1.00;;;;;;;;;;5035557;28;20080;-74
2023/05/28 10:25:46;;;;;;;6.85;0.93;;;;;;;;;;5049351;28;20025;-75
2023/05/28 10:28:15;;;;;;;1.63;0.85;;;;;;;;;;5036993;28;20099;-74
2023/05/28 10:30:44;;;;;;;0.70;0.70;;;;;;;;;;5043317;28;20618;-74
2023/05/28 10:33:17;;;;;;;2.80;1.05;;;;;;;;;;5051251;28;20122;-74
2023/05/28 10:35:53;;;;;;;1.02;0.80;;;;;;;;;;5034122;28;20052;-75
2023/05/28 10:38:19;;;;;;;2.50;0.80;;;;;;;;;;5040824;28;20025;-72
2023/05/28 10:40:45;;;;;;;1.67;1.00;;;;;;;;;;5048002;28;20033;-73
2023/05/28 10:43:31;;;;;;;1.77;0.77;;;;;;;;;;5038860;28;20147;-76
2023/05/28 10:45:57;;;;;;;1.50;0.90;;;;;;;;;;5047988;28;20685;-75
2023/05/28 10:48:26;;;;;;;3.10;0.93;;;;;;;;;;5044924;28;20550;-76
2023/05/28 10:50:58;;;;;;;1.00;0.63;;;;;;;;;;5046924;28;20483;-76
2023/05/28 10:53:26;;;;;;;0.77;0.60;;;;;;;;;;5034745;28;20025;-75
2023/05/28 10:55:53;;;;;;;1.25;1.00;;;;;;;;;;5044831;28;20053;-76
2023/05/28 10:58:54;;;;;;;;;;;;;;;;;;;;;
2023/05/28 11:01:15;;;;;;;1.50;0.80;;;;;;;;;;5041596;28;20025;-76
2023/05/28 11:03:45;;;;;;;2.65;1.70;;;;;;;;;;5039096;28;20033;-76
2023/05/28 11:06:15;;;;;;;1.15;0.80;;;;;;;;;;5050120;28;20141;-76
2023/05/28 11:08:42;;;;;;;1.15;1.00;;;;;;;;;;5050239;28;20506;-77
2023/05/28 11:11:18;;;;;;;2.47;0.80;;;;;;;;;;5069186;28;20024;-77
2023/05/28 11:13:48;;;;;;;0.65;0.65;;;;;;;;;;5044424;28;20022;-78
2023/05/28 11:16:18;;;;;;;0.90;0.80;;;;;;;;;;5039999;28;20794;-75
2023/05/28 11:19:02;;;;;;;2.17;1.08;;;;;;;;;;5050475;28;20044;-76
2023/05/28 11:21:28;;;;;;;1.10;1.00;;;;;;;;;;5049557;28;20017;-75
2023/05/28 11:24:05;;;;;;;0.80;0.80;;;;;;;;;;5043465;28;20025;-76
2023/05/28 11:26:32;;;;;;;0.85;0.68;;;;;;;;;;5050065;28;20029;-76
2023/05/28 11:28:59;;;;;;;0.80;0.63;;;;;;;;;;5049497;28;20029;-75
2023/05/28 11:31:25;;;;;;;1.25;0.90;;;;;;;;;;5050090;28;20032;-76
2023/05/28 11:33:51;;;;;;;3.38;1.05;;;;;;;;;;5045517;28;20032;-76
2023/05/28 11:36:20;;;;;;;0.88;0.77;;;;;;;;;;5049807;28;20033;-76
2023/05/28 11:38:46;;;;;;;0.80;0.80;;;;;;;;;;5049100;28;20028;-73
2023/05/28 11:41:12;;;;;;;1.13;0.70;;;;;;;;;;5049843;28;20032;-75
2023/05/28 11:43:38;;;;;;;1.08;0.70;;;;;;;;;;5049322;28;20021;-76
2023/05/28 11:46:05;;;;;;;0.93;0.80;;;;;;;;;;5042572;28;20039;-76
2023/05/28 11:48:36;;;;;;;0.57;0.55;;;;;;;;;;5049928;28;20039;-76
2023/05/28 11:51:26;;;;;;;0.98;0.93;;;;;;;;;;5049610;28;20025;-76
2023/05/28 11:53:52;;;;;;;0.95;0.85;;;;;;;;;;5043765;28;20553;-76
2023/05/28 11:56:18;;;;;;;0.98;0.85;;;;;;;;;;5036096;28;20025;-76
2023/05/28 11:58:45;;;;;;;3.92;1.33;;;;;;;;;;5044522;28;20029;-76
2023/05/28 12:01:15;;;;;;;1.38;0.90;;;;;;;;;;5047705;28;20045;-76
2023/05/28 12:03:56;;;;;;;1.08;0.90;;;;;;;;;;5048879;28;20074;-75
2023/05/28 12:06:22;;;;;;;1.35;0.85;;;;;;;;;;5049113;28;20132;-75
2023/05/28 12:08:48;;;;;;;0.80;0.80;;;;;;;;;;5035693;28;20014;-75
2023/05/28 12:11:14;;;;;;;2.08;0.93;;;;;;;;;;5047916;28;20147;-76
2023/05/28 12:13:47;;;;;;;1.15;1.00;;;;;;;;;;5047610;28;20029;-76
2023/05/28 12:16:14;;;;;;;1.38;0.77;;;;;;;;;;5046315;28;20024;-76
2023/05/28 12:18:41;;;;;;;0.88;0.88;;;;;;;;;;5042258;28;20033;-76
2023/05/28 12:21:13;;;;;;;1.27;0.70;;;;;;;;;;5036753;28;20623;-76
2023/05/28 12:23:39;;;;;;;2.15;1.08;;;;;;;;;;5041010;28;20025;-75
2023/05/28 12:26:11;;;;;;;0.90;0.80;;;;;;;;;;5037014;28;20032;-74
2023/05/28 12:28:40;;;;;;;0.90;0.70;;;;;;;;;;5037788;28;20031;-76
2023/05/28 12:31:07;;;;;;;1.02;0.90;;;;;;;;;;5047389;28;20183;-79
2023/05/28 12:33:33;;;;;;;1.00;0.88;;;;;;;;;;5032115;28;20021;-76
2023/05/28 12:35:59;;;;;;;3.05;0.63;;;;;;;;;;5044752;28;20499;-74
2023/05/28 12:38:26;;;;;;;0.73;0.73;;;;;;;;;;5043234;28;20029;-74
2023/05/28 12:40:52;;;;;;;1.23;1.13;;;;;;;;;;5040645;28;20025;-76
2023/05/28 12:43:18;;;;;;;1.20;0.75;;;;;;;;;;5040434;28;20028;-75
2023/05/28 12:45:44;;;;;;;1.23;0.90;;;;;;;;;;5037489;28;20025;-74
2023/05/28 12:48:10;;;;;;;1.33;1.05;;;;;;;;;;5036535;28;20427;-74
2023/05/28 12:50:36;;;;;;;0.82;0.75;;;;;;;;;;5041781;28;20048;-76
2023/05/28 12:53:05;;;;;;;0.98;0.90;;;;;;;;;;5036141;28;20108;-75
2023/05/28 12:55:32;;;;;;;0.98;0.82;;;;;;;;;;5032143;28;20052;-74
2023/05/28 12:58:04;;;;;;;1.30;1.00;;;;;;;;;;5028604;28;20045;-75
2023/05/28 13:00:30;;;;;;;0.60;0.60;;;;;;;;;;5038002;28;20048;-74
2023/05/28 13:02:56;;;;;;;1.13;0.77;;;;;;;;;;5037421;28;20025;-74
2023/05/28 13:05:22;;;;;;;0.98;0.88;;;;;;;;;;5035727;28;20053;-74
2023/05/28 13:07:48;;;;;;;0.80;0.70;;;;;;;;;;5047291;28;20543;-74
2023/05/28 13:10:20;;;;;;;1.23;0.90;;;;;;;;;;5042804;28;20033;-74
2023/05/28 13:12:53;;;;;;;0.60;0.60;;;;;;;;;;5044103;28;20263;-73
2023/05/28 13:15:19;;;;;;;0.57;0.57;;;;;;;;;;5044587;28;20484;-74
2023/05/28 13:17:48;;;;;;;0.60;0.60;;;;;;;;;;5040287;28;20040;-75
2023/05/28 13:20:14;;;;;;;0.80;0.80;;;;;;;;;;5036992;28;20056;-73
2023/05/28 13:22:43;;;;;;;1.17;0.88;;;;;;;;;;5035223;28;20108;-74
2023/05/28 13:25:09;;;;;;;0.63;0.63;;;;;;;;;;5044387;28;20025;-73
2023/05/28 13:27:35;;;;;;;2.22;0.98;;;;;;;;;;5041022;28;20025;-72
2023/05/28 13:30:02;;;;;;;0.82;0.80;;;;;;;;;;5036289;28;20024;-72
2023/05/28 13:32:28;;;;;;;1.42;0.70;;;;;;;;;;5046607;28;20097;-73
2023/05/28 13:34:54;;;;;;;1.67;0.90;;;;;;;;;;5046708;28;20532;-74
2023/05/28 13:37:20;;;;;;;1.02;0.77;;;;;;;;;;5039406;28;20484;-74
2023/05/28 13:39:46;;;;;;;1.10;0.70;;;;;;;;;;5040242;28;20040;-72
2023/05/28 13:42:13;;;;;;;1.80;1.00;;;;;;;;;;5042980;28;20022;-73
2023/05/28 13:44:39;;;;;;;1.55;0.75;;;;;;;;;;5048085;28;20408;-71
2023/05/28 13:47:05;;;;;;;0.75;0.70;;;;;;;;;;5048830;28;20025;-79
2023/05/28 13:49:31;;;;;;;2.42;0.80;;;;;;;;;;5041954;28;20033;-71
2023/05/28 13:51:57;;;;;;;1.40;1.08;;;;;;;;;;5038607;28;20037;-73
2023/05/28 13:54:23;;;;;;;1.05;0.80;;;;;;;;;;5045169;28;20036;-73
2023/05/28 13:56:49;;;;;;;1.05;0.80;;;;;;;;;;5048955;28;20099;-74
2023/05/28 13:59:15;;;;;;;0.63;0.63;;;;;;;;;;5035190;28;20396;-78
2023/05/28 14:01:41;;;;;;;0.63;0.63;;;;;;;;;;5054886;28;20025;-73
2023/05/28 14:04:10;;;;;;;1.55;0.80;;;;;;;;;;5042772;28;20610;-74
2023/05/28 14:06:36;;;;;;;1.00;0.90;;;;;;;;;;5047280;28;20369;-73
2023/05/28 14:09:04;;;;;;;0.65;0.65;;;;;;;;;;5035837;28;20125;-74
2023/05/28 14:11:33;;;;;;;0.90;0.70;;;;;;;;;;5036430;28;20476;-73
2023/05/28 14:13:59;;;;;;;1.33;0.98;;;;;;;;;;5035247;28;20040;-75
2023/05/28 14:16:25;;;;;;;1.10;0.90;;;;;;;;;;5041230;28;20159;-79
2023/05/28 14:18:51;;;;;;;1.35;0.60;;;;;;;;;;5047169;28;20476;-75
2023/05/28 14:21:17;;;;;;;1.42;1.00;;;;;;;;;;5021869;28;20047;-76
2023/05/28 14:23:43;;;;;;;0.85;0.80;;;;;;;;;;5034215;28;20029;-74
2023/05/28 14:26:09;;;;;;;1.05;0.73;;;;;;;;;;5041869;28;20032;-74
2023/05/28 14:28:35;;;;;;;3.30;1.02;;;;;;;;;;5039230;28;20104;-77
2023/05/28 14:31:01;;;;;;;1.17;1.00;;;;;;;;;;5039335;28;20057;-76
2023/05/28 14:33:31;;;;;;;4.53;1.48;;;;;;;;;;5043648;28;20064;-76
2023/05/28 14:35:57;;;;;;;1.35;0.90;;;;;;;;;;5042211;28;20108;-76
2023/05/28 14:38:23;;;;;;;1.17;1.08;;;;;;;;;;5045543;28;20040;-75
2023/05/28 14:40:49;;;;;;;1.60;1.20;;;;;;;;;;5048152;28;20033;-75
2023/05/28 14:43:15;;;;;;;5.65;0.93;;;;;;;;;;5041306;28;20014;-76
2023/05/28 14:45:41;;;;;;;2.13;1.30;;;;;;;;;;5038773;28;20611;-76
2023/05/28 14:48:06;;;;;;;1.45;1.15;;;;;;;;;;5036090;28;20466;-75
2023/05/28 14:50:32;;;;;;;2.25;1.15;;;;;;;;;;5043345;28;20373;-76